sensor_id;sensor_type;location;lat;lon;timestamp;temperature;humidity
8595;DHT22;4335;48.860;9.198;2023-08-21T00:02:21;26.00;99.90
8595;DHT22;4335;48.860;9.198;2023-08-21T00:04:48;26.00;99.90
8595;DHT22;4335;48.860;9.198;2023-08-21T00:07:16;26.00;99.90
8595;DHT22;4335;48.860;9.198;2023-08-21T00:09:46;26.00;99.90
8595;DHT22;4335;48.860;9.198;2023-08-21T00:12:14;26.00;99.90
8595;DHT22;4335;48.860;9.198;2023-08-21T00:14:42;26.00;99.90
8595;DHT22;4335;48.860;9.198;2023-08-21T00:17:10;26.00;99.90
8595;DHT22;4335;48.860;9.198;2023-08-21T00:19:38;26.00;99.90
8595;DHT22;4335;48.860;9.198;2023-08-21T00:22:11;25.90;99.90
8595;DHT22;4335;48.860;9.198;2023-08-21T00:24:38;25.90;99.90
8595;DHT22;4335;48.860;9.198;2023-08-21T00:27:08;25.90;99.90
8595;DHT22;4335;48.860;9.198;2023-08-21T00:29:35;25.90;99.90
8595;DHT22;4335;48.860;9.198;2023-08-21T00:32:07;25.90;99.90
8595;DHT22;4335;48.860;9.198;2023-08-21T00:34:37;25.90;99.90
8595;DHT22;4335;48.860;9.198;2023-08-21T00:37:08;25.80;99.90
8595;DHT22;4335;48.860;9.198;2023-08-21T00:39:35;25.80;99.90
8595;DHT22;4335;48.860;9.198;2023-08-21T00:42:03;25.80;99.90
8595;DHT22;4335;48.860;9.198;2023-08-21T00:44:31;25.80;99.90
8595;DHT22;4335;48.860;9.198;2023-08-21T00:47:01;25.80;99.90
8595;DHT22;4335;48.860;9.198;2023-08-21T00:49:33;25.80;99.90
8595;DHT22;4335;48.860;9.198;2023-08-21T00:52:04;25.80;99.90
8595;DHT22;4335;48.860;9.198;2023-08-21T00:54:38;25.80;99.90
8595;DHT22;4335;48.860;9.198;2023-08-21T00:57:06;25.80;99.90
8595;DHT22;4335;48.860;9.198;2023-08-21T00:59:33;25.70;99.90
8595;DHT22;4335;48.860;9.198;2023-08-21T01:02:04;25.70;99.90
8595;DHT22;4335;48.860;9.198;2023-08-21T01:04:54;25.70;99.90
8595;DHT22;4335;48.860;9.198;2023-08-21T01:07:21;25.60;99.90
8595;DHT22;4335;48.860;9.198;2023-08-21T01:09:58;25.60;99.90
8595;DHT22;4335;48.860;9.198;2023-08-21T01:12:31;25.50;99.90
8595;DHT22;4335;48.860;9.198;2023-08-21T01:15:02;25.50;99.90
8595;DHT22;4335;48.860;9.198;2023-08-21T01:17:31;25.50;99.90
8595;DHT22;4335;48.860;9.198;2023-08-21T01:20:07;25.40;99.90
8595;DHT22;4335;48.860;9.198;2023-08-21T01:22:36;25.40;99.90
8595;DHT22;4335;48.860;9.198;2023-08-21T01:25:17;25.40;99.90
8595;DHT22;4335;48.860;9.198;2023-08-21T01:27:47;25.30;99.90
8595;DHT22;4335;48.860;9.198;2023-08-21T01:30:15;25.30;99.90
8595;DHT22;4335;48.860;9.198;2023-08-21T01:32:53;25.30;99.90
8595;DHT22;4335;48.860;9.198;2023-08-21T01:35:28;25.30;99.90
8595;DHT22;4335;48.860;9.198;2023-08-21T01:37:57;25.20;99.90
8595;DHT22;4335;48.860;9.198;2023-08-21T01:40:29;25.20;99.90
8595;DHT22;4335;48.860;9.198;2023-08-21T01:42:57;25.20;99.90
8595;DHT22;4335;48.860;9.198;2023-08-21T01:45:24;25.10;99.90
8595;DHT22;4335;48.860;9.198;2023-08-21T01:47:52;25.10;99.90
8595;DHT22;4335;48.860;9.198;2023-08-21T01:50:19;25.10;99.90
8595;DHT22;4335;48.860;9.198;2023-08-21T01:52:49;25.10;99.90
8595;DHT22;4335;48.860;9.198;2023-08-21T01:55:20;25.00;99.90
8595;DHT22;4335;48.860;9.198;2023-08-21T01:57:51;25.00;99.90
8595;DHT22;4335;48.860;9.198;2023-08-21T02:00:19;25.00;99.90
8595;DHT22;4335;48.860;9.198;2023-08-21T02:02:46;25.00;99.90
8595;DHT22;4335;48.860;9.198;2023-08-21T02:05:14;24.90;99.90
8595;DHT22;4335;48.860;9.198;2023-08-21T02:07:44;24.90;99.90
8595;DHT22;4335;48.860;9.198;2023-08-21T02:10:12;24.90;99.90
8595;DHT22;4335;48.860;9.198;2023-08-21T02:12:41;24.80;99.90
8595;DHT22;4335;48.860;9.198;2023-08-21T02:15:15;24.80;99.90
8595;DHT22;4335;48.860;9.198;2023-08-21T02:17:46;24.70;99.90
8595;DHT22;4335;48.860;9.198;2023-08-21T02:20:19;24.70;99.90
8595;DHT22;4335;48.860;9.198;2023-08-21T02:22:47;24.60;99.90
8595;DHT22;4335;48.860;9.198;2023-08-21T02:25:17;24.60;99.90
8595;DHT22;4335;48.860;9.198;2023-08-21T02:27:44;24.60;99.90
8595;DHT22;4335;48.860;9.198;2023-08-21T02:30:16;24.50;99.90
8595;DHT22;4335;48.860;9.198;2023-08-21T02:32:50;24.50;99.90
8595;DHT22;4335;48.860;9.198;2023-08-21T02:35:17;24.50;99.90
8595;DHT22;4335;48.860;9.198;2023-08-21T02:37:44;24.50;99.90
8595;DHT22;4335;48.860;9.198;2023-08-21T02:40:12;24.50;99.90
8595;DHT22;4335;48.860;9.198;2023-08-21T02:42:39;24.50;99.90
8595;DHT22;4335;48.860;9.198;2023-08-21T02:45:08;24.40;99.90
8595;DHT22;4335;48.860;9.198;2023-08-21T02:47:42;24.40;99.90
8595;DHT22;4335;48.860;9.198;2023-08-21T02:50:10;24.40;99.90
8595;DHT22;4335;48.860;9.198;2023-08-21T02:52:38;24.40;99.90
8595;DHT22;4335;48.860;9.198;2023-08-21T02:55:09;24.40;99.90
8595;DHT22;4335;48.860;9.198;2023-08-21T02:57:40;24.30;99.90
8595;DHT22;4335;48.860;9.198;2023-08-21T03:00:11;24.30;99.90
8595;DHT22;4335;48.860;9.198;2023-08-21T03:02:40;24.30;99.90
8595;DHT22;4335;48.860;9.198;2023-08-21T03:05:09;24.30;99.90
8595;DHT22;4335;48.860;9.198;2023-08-21T03:07:37;24.20;99.90
8595;DHT22;4335;48.860;9.198;2023-08-21T03:10:05;24.20;99.90
8595;DHT22;4335;48.860;9.198;2023-08-21T03:12:33;24.20;99.90
8595;DHT22;4335;48.860;9.198;2023-08-21T03:15:04;24.20;99.90
8595;DHT22;4335;48.860;9.198;2023-08-21T03:17:34;24.10;99.90
8595;DHT22;4335;48.860;9.198;2023-08-21T03:20:16;24.10;99.90
8595;DHT22;4335;48.860;9.198;2023-08-21T03:22:43;24.10;99.90
8595;DHT22;4335;48.860;9.198;2023-08-21T03:25:11;24.10;99.90
8595;DHT22;4335;48.860;9.198;2023-08-21T03:27:41;24.10;99.90
8595;DHT22;4335;48.860;9.198;2023-08-21T03:30:13;24.00;99.90
8595;DHT22;4335;48.860;9.198;2023-08-21T03:32:43;24.00;99.90
8595;DHT22;4335;48.860;9.198;2023-08-21T03:35:11;24.00;99.90
8595;DHT22;4335;48.860;9.198;2023-08-21T03:37:43;24.00;99.90
8595;DHT22;4335;48.860;9.198;2023-08-21T03:40:11;24.00;99.90
8595;DHT22;4335;48.860;9.198;2023-08-21T03:42:38;24.00;99.90
8595;DHT22;4335;48.860;9.198;2023-08-21T03:45:09;24.00;99.90
8595;DHT22;4335;48.860;9.198;2023-08-21T03:47:39;24.00;99.90
8595;DHT22;4335;48.860;9.198;2023-08-21T03:50:16;24.00;99.90
8595;DHT22;4335;48.860;9.198;2023-08-21T03:52:51;24.00;99.90
8595;DHT22;4335;48.860;9.198;2023-08-21T03:55:18;23.90;99.90
8595;DHT22;4335;48.860;9.198;2023-08-21T03:57:46;23.90;99.90
8595;DHT22;4335;48.860;9.198;2023-08-21T04:00:16;23.90;99.90
8595;DHT22;4335;48.860;9.198;2023-08-21T04:02:46;23.90;99.90
8595;DHT22;4335;48.860;9.198;2023-08-21T04:05:20;23.90;99.90
8595;DHT22;4335;48.860;9.198;2023-08-21T04:07:57;23.90;99.90
8595;DHT22;4335;48.860;9.198;2023-08-21T04:10:28;23.80;99.90
8595;DHT22;4335;48.860;9.198;2023-08-21T04:12:55;23.80;99.90
8595;DHT22;4335;48.860;9.198;2023-08-21T04:15:22;23.80;99.90
8595;DHT22;4335;48.860;9.198;2023-08-21T04:17:50;23.70;99.90
8595;DHT22;4335;48.860;9.198;2023-08-21T04:20:19;23.70;99.90
8595;DHT22;4335;48.860;9.198;2023-08-21T04:22:46;23.70;99.90
8595;DHT22;4335;48.860;9.198;2023-08-21T04:25:15;23.70;99.90
8595;DHT22;4335;48.860;9.198;2023-08-21T04:27:43;23.70;99.90
8595;DHT22;4335;48.860;9.198;2023-08-21T04:30:11;23.70;99.90
8595;DHT22;4335;48.860;9.198;2023-08-21T04:32:39;23.70;99.90
8595;DHT22;4335;48.860;9.198;2023-08-21T04:35:07;23.60;99.90
8595;DHT22;4335;48.860;9.198;2023-08-21T04:37:42;23.70;99.90
8595;DHT22;4335;48.860;9.198;2023-08-21T04:40:18;23.60;99.90
8595;DHT22;4335;48.860;9.198;2023-08-21T04:42:46;23.70;99.90
8595;DHT22;4335;48.860;9.198;2023-08-21T04:45:17;23.80;99.90
8595;DHT22;4335;48.860;9.198;2023-08-21T04:47:44;23.80;99.90
8595;DHT22;4335;48.860;9.198;2023-08-21T04:50:12;23.90;99.90
8595;DHT22;4335;48.860;9.198;2023-08-21T04:52:57;24.00;99.90
8595;DHT22;4335;48.860;9.198;2023-08-21T04:55:26;24.10;99.90
8595;DHT22;4335;48.860;9.198;2023-08-21T04:57:56;24.20;99.90
8595;DHT22;4335;48.860;9.198;2023-08-21T05:00:23;24.40;99.90
8595;DHT22;4335;48.860;9.198;2023-08-21T05:02:54;24.60;99.90
8595;DHT22;4335;48.860;9.198;2023-08-21T05:05:21;24.70;99.90
8595;DHT22;4335;48.860;9.198;2023-08-21T05:07:48;24.90;99.90
8595;DHT22;4335;48.860;9.198;2023-08-21T05:10:19;25.10;99.90
8595;DHT22;4335;48.860;9.198;2023-08-21T05:12:47;25.30;99.90
8595;DHT22;4335;48.860;9.198;2023-08-21T05:15:24;25.40;99.90
8595;DHT22;4335;48.860;9.198;2023-08-21T05:17:51;25.70;99.90
8595;DHT22;4335;48.860;9.198;2023-08-21T05:20:18;25.90;99.90
8595;DHT22;4335;48.860;9.198;2023-08-21T05:22:46;26.00;99.90
8595;DHT22;4335;48.860;9.198;2023-08-21T05:25:22;26.30;99.90
8595;DHT22;4335;48.860;9.198;2023-08-21T05:27:53;26.50;99.90
8595;DHT22;4335;48.860;9.198;2023-08-21T05:30:21;26.70;99.90
8595;DHT22;4335;48.860;9.198;2023-08-21T05:32:51;26.90;99.90
8595;DHT22;4335;48.860;9.198;2023-08-21T05:35:18;27.10;99.90
8595;DHT22;4335;48.860;9.198;2023-08-21T05:37:46;27.30;99.90
8595;DHT22;4335;48.860;9.198;2023-08-21T05:40:16;27.50;99.90
8595;DHT22;4335;48.860;9.198;2023-08-21T05:42:44;27.70;99.90
8595;DHT22;4335;48.860;9.198;2023-08-21T05:45:13;27.80;99.90
8595;DHT22;4335;48.860;9.198;2023-08-21T05:47:41;28.00;99.90
8595;DHT22;4335;48.860;9.198;2023-08-21T05:50:09;28.30;99.90
8595;DHT22;4335;48.860;9.198;2023-08-21T05:52:39;28.60;99.90
8595;DHT22;4335;48.860;9.198;2023-08-21T05:55:09;28.90;99.90
8595;DHT22;4335;48.860;9.198;2023-08-21T05:57:43;29.40;99.90
8595;DHT22;4335;48.860;9.198;2023-08-21T06:00:13;29.70;99.90
8595;DHT22;4335;48.860;9.198;2023-08-21T06:02:41;30.10;99.90
8595;DHT22;4335;48.860;9.198;2023-08-21T06:05:09;30.60;99.90
8595;DHT22;4335;48.860;9.198;2023-08-21T06:07:39;31.20;99.90
8595;DHT22;4335;48.860;9.198;2023-08-21T06:10:10;31.70;99.90
8595;DHT22;4335;48.860;9.198;2023-08-21T06:12:39;32.20;99.90
8595;DHT22;4335;48.860;9.198;2023-08-21T06:15:09;32.60;99.90
8595;DHT22;4335;48.860;9.198;2023-08-21T06:17:42;33.00;99.90
8595;DHT22;4335;48.860;9.198;2023-08-21T06:20:09;33.40;99.90
8595;DHT22;4335;48.860;9.198;2023-08-21T06:22:39;33.70;99.90
8595;DHT22;4335;48.860;9.198;2023-08-21T06:25:08;33.80;99.90
8595;DHT22;4335;48.860;9.198;2023-08-21T06:27:42;34.10;99.90
8595;DHT22;4335;48.860;9.198;2023-08-21T06:30:11;34.20;99.90
8595;DHT22;4335;48.860;9.198;2023-08-21T06:32:40;34.40;99.90
8595;DHT22;4335;48.860;9.198;2023-08-21T06:35:08;34.50;99.90
8595;DHT22;4335;48.860;9.198;2023-08-21T06:37:36;34.80;99.90
8595;DHT22;4335;48.860;9.198;2023-08-21T06:40:04;35.10;99.90
8595;DHT22;4335;48.860;9.198;2023-08-21T06:42:38;35.20;99.90
8595;DHT22;4335;48.860;9.198;2023-08-21T06:45:09;35.50;99.90
8595;DHT22;4335;48.860;9.198;2023-08-21T06:47:41;35.60;99.90
8595;DHT22;4335;48.860;9.198;2023-08-21T06:50:26;36.00;99.90
8595;DHT22;4335;48.860;9.198;2023-08-21T06:52:54;36.10;99.90
8595;DHT22;4335;48.860;9.198;2023-08-21T06:55:24;36.40;99.90
8595;DHT22;4335;48.860;9.198;2023-08-21T06:57:58;36.40;99.90
8595;DHT22;4335;48.860;9.198;2023-08-21T07:00:26;35.90;99.90
8595;DHT22;4335;48.860;9.198;2023-08-21T07:02:54;35.90;99.90
8595;DHT22;4335;48.860;9.198;2023-08-21T07:05:24;35.90;99.90
8595;DHT22;4335;48.860;9.198;2023-08-21T07:07:54;36.00;99.90
8595;DHT22;4335;48.860;9.198;2023-08-21T07:10:21;36.40;99.90
8595;DHT22;4335;48.860;9.198;2023-08-21T07:12:49;36.20;99.90
8595;DHT22;4335;48.860;9.198;2023-08-21T07:15:23;36.50;99.60
8595;DHT22;4335;48.860;9.198;2023-08-21T07:17:50;37.10;98.30
8595;DHT22;4335;48.860;9.198;2023-08-21T07:20:19;37.70;96.90
8595;DHT22;4335;48.860;9.198;2023-08-21T07:22:46;38.50;95.50
8595;DHT22;4335;48.860;9.198;2023-08-21T07:25:19;39.00;93.80
8595;DHT22;4335;48.860;9.198;2023-08-21T07:27:46;39.70;91.50
8595;DHT22;4335;48.860;9.198;2023-08-21T07:30:16;40.20;89.20
8595;DHT22;4335;48.860;9.198;2023-08-21T07:32:52;40.80;85.30
8595;DHT22;4335;48.860;9.198;2023-08-21T07:35:23;41.70;80.80
8595;DHT22;4335;48.860;9.198;2023-08-21T07:37:54;42.20;76.20
8595;DHT22;4335;48.860;9.198;2023-08-21T07:40:21;42.40;73.70
8595;DHT22;4335;48.860;9.198;2023-08-21T07:42:49;42.10;71.40
8595;DHT22;4335;48.860;9.198;2023-08-21T07:45:16;42.50;69.90
8595;DHT22;4335;48.860;9.198;2023-08-21T07:47:50;42.80;69.70
8595;DHT22;4335;48.860;9.198;2023-08-21T07:50:22;43.00;68.70
8595;DHT22;4335;48.860;9.198;2023-08-21T07:52:49;42.80;67.40
8595;DHT22;4335;48.860;9.198;2023-08-21T07:55:16;43.10;66.30
8595;DHT22;4335;48.860;9.198;2023-08-21T07:57:47;43.30;64.80
8595;DHT22;4335;48.860;9.198;2023-08-21T08:00:20;43.70;63.80
8595;DHT22;4335;48.860;9.198;2023-08-21T08:02:54;43.70;63.10
8595;DHT22;4335;48.860;9.198;2023-08-21T08:05:23;43.60;62.60
8595;DHT22;4335;48.860;9.198;2023-08-21T08:07:50;43.50;62.10
8595;DHT22;4335;48.860;9.198;2023-08-21T08:10:20;43.40;62.30
8595;DHT22;4335;48.860;9.198;2023-08-21T08:12:48;43.60;62.30
8595;DHT22;4335;48.860;9.198;2023-08-21T08:15:18;43.90;61.50
8595;DHT22;4335;48.860;9.198;2023-08-21T08:17:46;43.90;60.70
8595;DHT22;4335;48.860;9.198;2023-08-21T08:20:13;43.80;60.30
8595;DHT22;4335;48.860;9.198;2023-08-21T08:22:42;43.90;60.00
8595;DHT22;4335;48.860;9.198;2023-08-21T08:25:10;43.90;60.90
8595;DHT22;4335;48.860;9.198;2023-08-21T08:27:40;43.80;59.80
8595;DHT22;4335;48.860;9.198;2023-08-21T08:30:10;43.50;60.40
8595;DHT22;4335;48.860;9.198;2023-08-21T08:32:39;43.30;61.20
8595;DHT22;4335;48.860;9.198;2023-08-21T08:35:07;43.20;61.50
8595;DHT22;4335;48.860;9.198;2023-08-21T08:37:35;42.30;62.20
8595;DHT22;4335;48.860;9.198;2023-08-21T08:40:08;41.80;63.60
8595;DHT22;4335;48.860;9.198;2023-08-21T08:42:36;42.00;64.20
8595;DHT22;4335;48.860;9.198;2023-08-21T08:45:04;41.50;64.70
8595;DHT22;4335;48.860;9.198;2023-08-21T08:47:34;41.80;65.30
8595;DHT22;4335;48.860;9.198;2023-08-21T08:50:21;42.20;63.50
8595;DHT22;4335;48.860;9.198;2023-08-21T08:52:54;42.60;62.00
8595;DHT22;4335;48.860;9.198;2023-08-21T08:55:27;43.10;61.10
8595;DHT22;4335;48.860;9.198;2023-08-21T08:58:00;43.50;59.40
8595;DHT22;4335;48.860;9.198;2023-08-21T09:00:43;44.00;58.20
8595;DHT22;4335;48.860;9.198;2023-08-21T09:03:11;44.90;56.80
8595;DHT22;4335;48.860;9.198;2023-08-21T09:05:39;45.10;56.10
8595;DHT22;4335;48.860;9.198;2023-08-21T09:08:11;45.70;55.10
8595;DHT22;4335;48.860;9.198;2023-08-21T09:10:45;45.70;54.50
8595;DHT22;4335;48.860;9.198;2023-08-21T09:13:14;46.50;53.30
8595;DHT22;4335;48.860;9.198;2023-08-21T09:15:46;46.60;53.30
8595;DHT22;4335;48.860;9.198;2023-08-21T09:18:14;46.70;52.50
8595;DHT22;4335;48.860;9.198;2023-08-21T09:20:42;47.60;52.40
8595;DHT22;4335;48.860;9.198;2023-08-21T09:23:14;47.20;51.30
8595;DHT22;4335;48.860;9.198;2023-08-21T09:25:47;47.40;50.50
8595;DHT22;4335;48.860;9.198;2023-08-21T09:28:18;47.10;50.10
8595;DHT22;4335;48.860;9.198;2023-08-21T09:30:50;47.90;50.30
8595;DHT22;4335;48.860;9.198;2023-08-21T09:33:18;47.20;50.40
8595;DHT22;4335;48.860;9.198;2023-08-21T09:35:47;46.80;50.30
8595;DHT22;4335;48.860;9.198;2023-08-21T09:38:20;47.50;49.80
8595;DHT22;4335;48.860;9.198;2023-08-21T09:40:53;47.40;49.50
8595;DHT22;4335;48.860;9.198;2023-08-21T09:43:24;47.00;49.00
8595;DHT22;4335;48.860;9.198;2023-08-21T09:45:53;46.90;49.60
8595;DHT22;4335;48.860;9.198;2023-08-21T09:48:25;47.20;49.60
8595;DHT22;4335;48.860;9.198;2023-08-21T09:51:00;47.30;48.40
8595;DHT22;4335;48.860;9.198;2023-08-21T09:53:33;47.60;48.20
8595;DHT22;4335;48.860;9.198;2023-08-21T09:56:01;47.80;48.00
8595;DHT22;4335;48.860;9.198;2023-08-21T09:58:33;47.70;47.90
8595;DHT22;4335;48.860;9.198;2023-08-21T10:01:04;47.90;47.30
8595;DHT22;4335;48.860;9.198;2023-08-21T10:03:41;47.90;47.20
8595;DHT22;4335;48.860;9.198;2023-08-21T10:06:10;47.90;45.30
8595;DHT22;4335;48.860;9.198;2023-08-21T10:08:42;47.90;45.20
8595;DHT22;4335;48.860;9.198;2023-08-21T10:11:13;47.10;45.60
8595;DHT22;4335;48.860;9.198;2023-08-21T10:13:47;47.00;46.00
8595;DHT22;4335;48.860;9.198;2023-08-21T10:16:16;45.90;46.80
8595;DHT22;4335;48.860;9.198;2023-08-21T10:18:45;45.60;47.20
8595;DHT22;4335;48.860;9.198;2023-08-21T10:21:13;45.00;46.70
8595;DHT22;4335;48.860;9.198;2023-08-21T10:23:41;45.50;45.20
8595;DHT22;4335;48.860;9.198;2023-08-21T10:26:11;44.50;46.60
8595;DHT22;4335;48.860;9.198;2023-08-21T10:28:50;44.70;47.60
8595;DHT22;4335;48.860;9.198;2023-08-21T10:31:31;44.30;47.80
8595;DHT22;4335;48.860;9.198;2023-08-21T10:34:00;44.20;48.10
8595;DHT22;4335;48.860;9.198;2023-08-21T10:37:10;44.30;48.00
8595;DHT22;4335;48.860;9.198;2023-08-21T10:39:39;44.60;47.60
8595;DHT22;4335;48.860;9.198;2023-08-21T10:42:12;44.60;47.60
8595;DHT22;4335;48.860;9.198;2023-08-21T10:44:52;44.40;48.00
8595;DHT22;4335;48.860;9.198;2023-08-21T10:47:31;44.10;48.30
8595;DHT22;4335;48.860;9.198;2023-08-21T10:50:02;43.40;49.00
8595;DHT22;4335;48.860;9.198;2023-08-21T10:52:36;43.00;49.20
8595;DHT22;4335;48.860;9.198;2023-08-21T10:55:06;42.30;50.30
8595;DHT22;4335;48.860;9.198;2023-08-21T10:57:41;41.10;52.50
8595;DHT22;4335;48.860;9.198;2023-08-21T11:00:30;39.90;54.30
8595;DHT22;4335;48.860;9.198;2023-08-21T11:03:03;39.20;56.20
8595;DHT22;4335;48.860;9.198;2023-08-21T11:05:35;38.20;58.20
8595;DHT22;4335;48.860;9.198;2023-08-21T11:08:05;37.30;59.70
8595;DHT22;4335;48.860;9.198;2023-08-21T11:10:35;36.80;61.30
8595;DHT22;4335;48.860;9.198;2023-08-21T11:13:06;36.30;63.10
8595;DHT22;4335;48.860;9.198;2023-08-21T11:15:34;35.80;64.80
8595;DHT22;4335;48.860;9.198;2023-08-21T11:18:08;35.40;65.70
8595;DHT22;4335;48.860;9.198;2023-08-21T11:20:35;34.80;67.50
8595;DHT22;4335;48.860;9.198;2023-08-21T11:23:04;34.50;69.50
8595;DHT22;4335;48.860;9.198;2023-08-21T11:25:32;34.30;70.60
8595;DHT22;4335;48.860;9.198;2023-08-21T11:28:04;34.20;71.20
8595;DHT22;4335;48.860;9.198;2023-08-21T11:30:31;34.00;71.60
8595;DHT22;4335;48.860;9.198;2023-08-21T11:33:06;33.70;72.80
8595;DHT22;4335;48.860;9.198;2023-08-21T11:35:33;33.60;73.40
8595;DHT22;4335;48.860;9.198;2023-08-21T11:38:06;33.40;74.40
8595;DHT22;4335;48.860;9.198;2023-08-21T11:40:34;33.30;76.00
8595;DHT22;4335;48.860;9.198;2023-08-21T11:43:06;33.10;77.20
8595;DHT22;4335;48.860;9.198;2023-08-21T11:45:34;33.00;79.00
8595;DHT22;4335;48.860;9.198;2023-08-21T11:48:05;32.90;79.60
8595;DHT22;4335;48.860;9.198;2023-08-21T11:50:39;32.80;80.00
8595;DHT22;4335;48.860;9.198;2023-08-21T11:53:09;32.70;80.90
8595;DHT22;4335;48.860;9.198;2023-08-21T11:55:37;32.60;83.10
8595;DHT22;4335;48.860;9.198;2023-08-21T11:58:10;32.50;84.40
8595;DHT22;4335;48.860;9.198;2023-08-21T12:00:40;32.40;85.50
8595;DHT22;4335;48.860;9.198;2023-08-21T12:03:10;32.40;86.90
8595;DHT22;4335;48.860;9.198;2023-08-21T12:05:44;32.40;87.50
8595;DHT22;4335;48.860;9.198;2023-08-21T12:08:11;32.40;88.40
8595;DHT22;4335;48.860;9.198;2023-08-21T12:10:38;32.30;89.10
8595;DHT22;4335;48.860;9.198;2023-08-21T12:13:04;32.20;90.40
8595;DHT22;4335;48.860;9.198;2023-08-21T12:15:31;32.10;90.90
8595;DHT22;4335;48.860;9.198;2023-08-21T12:17:58;32.10;91.60
8595;DHT22;4335;48.860;9.198;2023-08-21T12:20:25;32.10;92.00
8595;DHT22;4335;48.860;9.198;2023-08-21T12:22:52;32.10;92.40
8595;DHT22;4335;48.860;9.198;2023-08-21T12:25:18;32.10;92.80
8595;DHT22;4335;48.860;9.198;2023-08-21T12:27:45;32.20;92.90
8595;DHT22;4335;48.860;9.198;2023-08-21T12:30:12;32.20;93.30
8595;DHT22;4335;48.860;9.198;2023-08-21T12:32:42;32.10;93.30
8595;DHT22;4335;48.860;9.198;2023-08-21T12:35:09;32.10;93.50
8595;DHT22;4335;48.860;9.198;2023-08-21T12:37:38;32.20;93.60
8595;DHT22;4335;48.860;9.198;2023-08-21T12:40:06;32.10;93.60
8595;DHT22;4335;48.860;9.198;2023-08-21T12:42:35;32.00;94.30
8595;DHT22;4335;48.860;9.198;2023-08-21T12:45:03;32.00;94.30
8595;DHT22;4335;48.860;9.198;2023-08-21T12:47:32;32.00;94.40
8595;DHT22;4335;48.860;9.198;2023-08-21T12:49:59;32.10;94.20
8595;DHT22;4335;48.860;9.198;2023-08-21T12:52:26;32.10;94.70
8595;DHT22;4335;48.860;9.198;2023-08-21T12:54:56;32.00;95.10
8595;DHT22;4335;48.860;9.198;2023-08-21T12:57:25;32.10;94.90
8595;DHT22;4335;48.860;9.198;2023-08-21T12:59:55;32.10;95.00
8595;DHT22;4335;48.860;9.198;2023-08-21T13:02:28;32.00;94.70
8595;DHT22;4335;48.860;9.198;2023-08-21T13:04:58;32.00;94.60
8595;DHT22;4335;48.860;9.198;2023-08-21T13:07:24;32.00;94.70
8595;DHT22;4335;48.860;9.198;2023-08-21T13:09:55;31.80;95.00
8595;DHT22;4335;48.860;9.198;2023-08-21T13:12:21;31.80;95.20
8595;DHT22;4335;48.860;9.198;2023-08-21T13:14:48;31.80;95.10
8595;DHT22;4335;48.860;9.198;2023-08-21T13:17:15;31.80;95.00
8595;DHT22;4335;48.860;9.198;2023-08-21T13:19:41;31.70;95.00
8595;DHT22;4335;48.860;9.198;2023-08-21T13:22:11;31.70;94.80
8595;DHT22;4335;48.860;9.198;2023-08-21T13:24:38;31.70;95.00
8595;DHT22;4335;48.860;9.198;2023-08-21T13:27:20;31.80;95.20
8595;DHT22;4335;48.860;9.198;2023-08-21T13:29:47;31.90;95.00
8595;DHT22;4335;48.860;9.198;2023-08-21T13:32:19;31.90;95.30
8595;DHT22;4335;48.860;9.198;2023-08-21T13:34:46;31.90;95.50
8595;DHT22;4335;48.860;9.198;2023-08-21T13:37:13;31.90;95.60
8595;DHT22;4335;48.860;9.198;2023-08-21T13:39:39;31.80;95.50
8595;DHT22;4335;48.860;9.198;2023-08-21T13:42:06;31.80;95.50
8595;DHT22;4335;48.860;9.198;2023-08-21T13:44:34;31.80;95.40
8595;DHT22;4335;48.860;9.198;2023-08-21T13:47:01;31.80;95.80
8595;DHT22;4335;48.860;9.198;2023-08-21T13:49:33;31.90;95.30
8595;DHT22;4335;48.860;9.198;2023-08-21T13:52:00;31.80;95.70
8595;DHT22;4335;48.860;9.198;2023-08-21T13:54:27;31.90;95.90
8595;DHT22;4335;48.860;9.198;2023-08-21T13:57:01;32.00;96.10
8595;DHT22;4335;48.860;9.198;2023-08-21T13:59:31;32.00;95.70
8595;DHT22;4335;48.860;9.198;2023-08-21T14:02:01;32.10;95.10
8595;DHT22;4335;48.860;9.198;2023-08-21T14:04:29;32.20;94.90
8595;DHT22;4335;48.860;9.198;2023-08-21T14:06:56;32.10;94.60
8595;DHT22;4335;48.860;9.198;2023-08-21T14:09:32;32.10;94.40
8595;DHT22;4335;48.860;9.198;2023-08-21T14:11:58;32.00;94.60
8595;DHT22;4335;48.860;9.198;2023-08-21T14:14:25;32.00;94.50
8595;DHT22;4335;48.860;9.198;2023-08-21T14:16:55;31.80;95.30
8595;DHT22;4335;48.860;9.198;2023-08-21T14:19:25;31.80;95.40
8595;DHT22;4335;48.860;9.198;2023-08-21T14:21:51;31.70;95.90
8595;DHT22;4335;48.860;9.198;2023-08-21T14:24:18;31.80;95.60
8595;DHT22;4335;48.860;9.198;2023-08-21T14:26:45;31.80;96.00
8595;DHT22;4335;48.860;9.198;2023-08-21T14:29:11;31.80;97.50
8595;DHT22;4335;48.860;9.198;2023-08-21T14:31:40;31.80;98.60
8595;DHT22;4335;48.860;9.198;2023-08-21T14:34:10;31.60;99.40
8595;DHT22;4335;48.860;9.198;2023-08-21T14:36:37;31.70;99.90
8595;DHT22;4335;48.860;9.198;2023-08-21T14:39:04;31.70;99.90
8595;DHT22;4335;48.860;9.198;2023-08-21T14:41:32;32.00;98.90
8595;DHT22;4335;48.860;9.198;2023-08-21T14:43:58;32.00;99.80
8595;DHT22;4335;48.860;9.198;2023-08-21T14:46:25;32.00;99.80
8595;DHT22;4335;48.860;9.198;2023-08-21T14:48:52;32.00;97.50
8595;DHT22;4335;48.860;9.198;2023-08-21T14:51:21;32.00;96.90
8595;DHT22;4335;48.860;9.198;2023-08-21T14:53:49;32.10;98.60
8595;DHT22;4335;48.860;9.198;2023-08-21T14:56:15;32.00;97.80
8595;DHT22;4335;48.860;9.198;2023-08-21T14:58:45;31.90;97.90
8595;DHT22;4335;48.860;9.198;2023-08-21T15:01:11;32.00;97.50
8595;DHT22;4335;48.860;9.198;2023-08-21T15:03:41;31.80;98.30
8595;DHT22;4335;48.860;9.198;2023-08-21T15:06:08;31.80;98.10
8595;DHT22;4335;48.860;9.198;2023-08-21T15:08:34;31.80;98.10
8595;DHT22;4335;48.860;9.198;2023-08-21T15:11:02;31.80;98.40
8595;DHT22;4335;48.860;9.198;2023-08-21T15:13:28;31.80;99.70
8595;DHT22;4335;48.860;9.198;2023-08-21T15:15:55;31.80;99.30
8595;DHT22;4335;48.860;9.198;2023-08-21T15:18:22;31.90;98.70
8595;DHT22;4335;48.860;9.198;2023-08-21T15:20:48;31.90;97.90
8595;DHT22;4335;48.860;9.198;2023-08-21T15:23:19;32.00;97.90
8595;DHT22;4335;48.860;9.198;2023-08-21T15:25:54;31.90;97.90
8595;DHT22;4335;48.860;9.198;2023-08-21T15:28:24;31.90;98.10
8595;DHT22;4335;48.860;9.198;2023-08-21T15:30:54;31.90;98.90
8595;DHT22;4335;48.860;9.198;2023-08-21T15:33:21;32.00;98.50
8595;DHT22;4335;48.860;9.198;2023-08-21T15:35:49;31.80;99.00
8595;DHT22;4335;48.860;9.198;2023-08-21T15:38:16;31.70;99.90
8595;DHT22;4335;48.860;9.198;2023-08-21T15:40:46;31.70;99.40
8595;DHT22;4335;48.860;9.198;2023-08-21T15:43:15;31.70;99.30
8595;DHT22;4335;48.860;9.198;2023-08-21T15:45:55;31.70;99.90
8595;DHT22;4335;48.860;9.198;2023-08-21T15:48:29;31.50;99.90
8595;DHT22;4335;48.860;9.198;2023-08-21T15:50:56;31.40;99.90
8595;DHT22;4335;48.860;9.198;2023-08-21T15:53:24;31.40;99.90
8595;DHT22;4335;48.860;9.198;2023-08-21T15:55:54;31.30;99.90
8595;DHT22;4335;48.860;9.198;2023-08-21T15:58:22;31.20;99.90
8595;DHT22;4335;48.860;9.198;2023-08-21T16:00:54;31.20;99.90
8595;DHT22;4335;48.860;9.198;2023-08-21T16:03:27;31.10;99.90
8595;DHT22;4335;48.860;9.198;2023-08-21T16:05:58;31.10;99.90
8595;DHT22;4335;48.860;9.198;2023-08-21T16:08:25;31.10;99.90
8595;DHT22;4335;48.860;9.198;2023-08-21T16:10:56;31.10;99.90
8595;DHT22;4335;48.860;9.198;2023-08-21T16:13:23;31.20;99.90
8595;DHT22;4335;48.860;9.198;2023-08-21T16:15:50;31.30;99.90
8595;DHT22;4335;48.860;9.198;2023-08-21T16:18:20;31.30;99.90
8595;DHT22;4335;48.860;9.198;2023-08-21T16:20:47;31.20;99.90